Port Alexander, Alaska
Current Conditions -  °F | °C
As of 10:16 AM on Tuesday 21 Oct 2014 (Local Time) from PAFE Reporting Station
Overcast Overcast  
Wind Chill: 50°   Ceiling: 4800
Heat Index: 50°   Visibility: 10mi
Dew Point: 39°   Wind: 12mph
Humidity: 66%   Direction: 100°E
Pressure: 29.21"   Gusts: NA
Location:  56.25°N, 134.65°W
Report Text: PAFE 211816Z AUTO 10010KT 10SM BKN048 OVC055 10/04 A2921 RMK AO1
Loading
Personal Weather Stations






























Interactive Weather Map
Tropical Storm Tracking
New forecast layout! Learn more

10-Day Weather Forecast

Advertisements
Track Severe Weather on mobile